sensor_id;sensor_type;location;lat;lon;timestamp;pressure;altitude;pressure_sealevel;temperature;humidity
6218;BME280;3142;48.206;11.550;2023-02-02T00:02:00;96145.44;;;5.32;64.81
6218;BME280;3142;48.206;11.550;2023-02-02T00:04:29;96158.41;;;5.32;64.99
6218;BME280;3142;48.206;11.550;2023-02-02T00:06:55;96157.31;;;5.34;65.13
6218;BME280;3142;48.206;11.550;2023-02-02T00:09:26;96158.41;;;5.32;65.21
6218;BME280;3142;48.206;11.550;2023-02-02T00:11:53;96163.09;;;5.28;65.38
6218;BME280;3142;48.206;11.550;2023-02-02T00:14:20;96160.81;;;5.25;65.80
6218;BME280;3142;48.206;11.550;2023-02-02T00:16:48;96150.00;;;5.38;64.78
6218;BME280;3142;48.206;11.550;2023-02-02T00:19:16;96161.81;;;5.32;65.41
6218;BME280;3142;48.206;11.550;2023-02-02T00:21:43;96153.53;;;5.29;65.86
6218;BME280;3142;48.206;11.550;2023-02-02T00:24:11;96169.91;;;5.29;66.49
6218;BME280;3142;48.206;11.550;2023-02-02T00:26:40;96152.38;;;5.23;66.30
6218;BME280;3142;48.206;11.550;2023-02-02T00:29:13;96156.91;;;5.21;66.75
6218;BME280;3142;48.206;11.550;2023-02-02T00:31:39;96147.34;;;5.22;66.89
6218;BME280;3142;48.206;11.550;2023-02-02T00:34:06;96153.00;;;5.17;67.51
6218;BME280;3142;48.206;11.550;2023-02-02T00:36:32;96167.91;;;5.15;68.29
6218;BME280;3142;48.206;11.550;2023-02-02T00:38:59;96165.31;;;5.15;67.83
6218;BME280;3142;48.206;11.550;2023-02-02T00:41:25;96138.88;;;5.12;68.15
6218;BME280;3142;48.206;11.550;2023-02-02T00:43:53;96158.50;;;5.14;68.63
6218;BME280;3142;48.206;11.550;2023-02-02T00:46:33;96125.75;;;5.13;68.38
6218;BME280;3142;48.206;11.550;2023-02-02T00:49:00;96146.81;;;5.10;68.75
6218;BME280;3142;48.206;11.550;2023-02-02T00:51:26;96144.38;;;5.09;68.86
6218;BME280;3142;48.206;11.550;2023-02-02T00:53:53;96155.03;;;5.05;69.64
6218;BME280;3142;48.206;11.550;2023-02-02T00:56:19;96149.56;;;5.09;69.46
6218;BME280;3142;48.206;11.550;2023-02-02T00:58:46;96143.84;;;5.05;70.10
6218;BME280;3142;48.206;11.550;2023-02-02T01:01:15;96157.28;;;5.00;70.25
6218;BME280;3142;48.206;11.550;2023-02-02T01:03:42;96158.59;;;5.04;70.29
6218;BME280;3142;48.206;11.550;2023-02-02T01:06:08;96151.28;;;5.00;70.44
6218;BME280;3142;48.206;11.550;2023-02-02T01:08:35;96140.06;;;4.91;70.56
6218;BME280;3142;48.206;11.550;2023-02-02T01:11:01;96172.13;;;4.90;70.83
6218;BME280;3142;48.206;11.550;2023-02-02T01:13:27;96134.22;;;4.89;70.88
6218;BME280;3142;48.206;11.550;2023-02-02T01:15:54;96138.44;;;4.90;71.09
6218;BME280;3142;48.206;11.550;2023-02-02T01:18:22;96148.94;;;4.89;71.08
6218;BME280;3142;48.206;11.550;2023-02-02T01:20:55;96130.50;;;4.92;70.74
6218;BME280;3142;48.206;11.550;2023-02-02T01:23:22;96133.41;;;4.89;70.84
6218;BME280;3142;48.206;11.550;2023-02-02T01:25:52;96126.13;;;4.92;70.24
6218;BME280;3142;48.206;11.550;2023-02-02T01:28:18;96129.69;;;4.91;70.38
6218;BME280;3142;48.206;11.550;2023-02-02T01:30:45;96135.41;;;4.95;69.76
6218;BME280;3142;48.206;11.550;2023-02-02T01:33:12;96130.72;;;4.98;70.14
6218;BME280;3142;48.206;11.550;2023-02-02T01:35:45;96125.03;;;4.95;70.25
6218;BME280;3142;48.206;11.550;2023-02-02T01:38:12;96120.81;;;4.94;69.99
6218;BME280;3142;48.206;11.550;2023-02-02T01:40:44;96123.41;;;4.94;70.27
6218;BME280;3142;48.206;11.550;2023-02-02T01:43:19;96124.41;;;5.01;69.87
6218;BME280;3142;48.206;11.550;2023-02-02T01:45:47;96101.00;;;4.93;69.90
6218;BME280;3142;48.206;11.550;2023-02-02T01:48:14;96112.41;;;5.00;69.96
6218;BME280;3142;48.206;11.550;2023-02-02T01:50:41;96118.25;;;5.02;69.24
6218;BME280;3142;48.206;11.550;2023-02-02T01:53:10;96122.63;;;5.01;69.46
6218;BME280;3142;48.206;11.550;2023-02-02T01:55:38;96103.69;;;5.09;68.92
6218;BME280;3142;48.206;11.550;2023-02-02T01:58:08;96106.91;;;5.03;68.97
6218;BME280;3142;48.206;11.550;2023-02-02T02:00:37;96109.50;;;5.03;69.25
6218;BME280;3142;48.206;11.550;2023-02-02T02:03:07;96109.03;;;5.08;68.77
6218;BME280;3142;48.206;11.550;2023-02-02T02:05:41;96127.84;;;5.10;68.71
6218;BME280;3142;48.206;11.550;2023-02-02T02:08:13;96110.00;;;5.06;68.68
6218;BME280;3142;48.206;11.550;2023-02-02T02:10:40;96107.09;;;5.10;68.72
6218;BME280;3142;48.206;11.550;2023-02-02T02:13:07;96108.69;;;5.02;68.98
6218;BME280;3142;48.206;11.550;2023-02-02T02:15:39;96102.25;;;5.15;68.77
6218;BME280;3142;48.206;11.550;2023-02-02T02:18:32;96105.94;;;5.04;69.02
6218;BME280;3142;48.206;11.550;2023-02-02T02:21:28;96110.31;;;5.03;69.24
6218;BME280;3142;48.206;11.550;2023-02-02T02:30:59;96105.78;;;5.05;68.57
6218;BME280;3142;48.206;11.550;2023-02-02T02:33:34;96122.66;;;5.10;68.77
6218;BME280;3142;48.206;11.550;2023-02-02T02:36:09;96125.75;;;5.13;68.63
6218;BME280;3142;48.206;11.550;2023-02-02T02:38:49;96118.44;;;5.09;69.43
6218;BME280;3142;48.206;11.550;2023-02-02T02:41:20;96108.38;;;5.05;68.94
6218;BME280;3142;48.206;11.550;2023-02-02T02:43:51;96107.41;;;5.06;68.65
6218;BME280;3142;48.206;11.550;2023-02-02T02:46:21;96120.34;;;5.06;69.08
6218;BME280;3142;48.206;11.550;2023-02-02T02:48:49;96115.16;;;5.06;68.77
6218;BME280;3142;48.206;11.550;2023-02-02T02:51:43;96096.53;;;5.03;69.10
6218;BME280;3142;48.206;11.550;2023-02-02T02:54:10;96108.06;;;5.09;68.22
6218;BME280;3142;48.206;11.550;2023-02-02T02:56:45;96123.47;;;5.10;68.93
6218;BME280;3142;48.206;11.550;2023-02-02T02:59:22;96116.34;;;5.12;68.60
6218;BME280;3142;48.206;11.550;2023-02-02T03:02:02;96111.47;;;5.09;68.81
6218;BME280;3142;48.206;11.550;2023-02-02T03:04:38;96116.81;;;5.08;69.04
6218;BME280;3142;48.206;11.550;2023-02-02T03:07:12;96108.19;;;5.07;69.30
6218;BME280;3142;48.206;11.550;2023-02-02T03:09:44;96102.88;;;5.09;68.96
6218;BME280;3142;48.206;11.550;2023-02-02T03:12:14;96128.34;;;5.13;69.23
6218;BME280;3142;48.206;11.550;2023-02-02T03:14:41;96117.16;;;5.13;68.87
6218;BME280;3142;48.206;11.550;2023-02-02T03:17:08;96125.25;;;5.10;69.59
6218;BME280;3142;48.206;11.550;2023-02-02T03:19:35;96117.47;;;5.10;70.31
6218;BME280;3142;48.206;11.550;2023-02-02T03:22:02;96113.25;;;5.09;71.21
6218;BME280;3142;48.206;11.550;2023-02-02T03:24:28;96120.50;;;5.05;71.60
6218;BME280;3142;48.206;11.550;2023-02-02T03:26:55;96119.84;;;5.03;71.09
6218;BME280;3142;48.206;11.550;2023-02-02T03:29:21;96104.00;;;5.06;70.83
6218;BME280;3142;48.206;11.550;2023-02-02T03:31:48;96110.34;;;5.12;71.39
6218;BME280;3142;48.206;11.550;2023-02-02T03:34:14;96124.41;;;5.01;72.29
6218;BME280;3142;48.206;11.550;2023-02-02T03:36:42;96136.88;;;4.97;72.41
6218;BME280;3142;48.206;11.550;2023-02-02T03:39:08;96117.53;;;4.92;72.73
6218;BME280;3142;48.206;11.550;2023-02-02T03:41:35;96126.59;;;4.88;73.78
6218;BME280;3142;48.206;11.550;2023-02-02T03:44:01;96116.84;;;4.82;73.56
6218;BME280;3142;48.206;11.550;2023-02-02T03:46:28;96120.41;;;4.81;73.68
6218;BME280;3142;48.206;11.550;2023-02-02T03:48:54;96116.16;;;4.80;73.72
6218;BME280;3142;48.206;11.550;2023-02-02T03:51:20;96125.13;;;4.85;73.58
6218;BME280;3142;48.206;11.550;2023-02-02T03:53:48;96127.22;;;4.82;73.16
6218;BME280;3142;48.206;11.550;2023-02-02T03:56:15;96119.78;;;4.87;73.00
6218;BME280;3142;48.206;11.550;2023-02-02T03:58:43;96117.69;;;4.90;73.14
6218;BME280;3142;48.206;11.550;2023-02-02T04:01:11;96128.53;;;4.86;73.86
6218;BME280;3142;48.206;11.550;2023-02-02T04:03:38;96124.34;;;4.93;73.31
6218;BME280;3142;48.206;11.550;2023-02-02T04:06:05;96125.47;;;4.90;73.21
6218;BME280;3142;48.206;11.550;2023-02-02T04:08:31;96129.69;;;4.91;73.44
6218;BME280;3142;48.206;11.550;2023-02-02T04:10:59;96118.22;;;4.94;73.29
6218;BME280;3142;48.206;11.550;2023-02-02T04:13:26;96113.53;;;4.97;73.04
6218;BME280;3142;48.206;11.550;2023-02-02T04:15:57;96127.78;;;5.01;73.02
6218;BME280;3142;48.206;11.550;2023-02-02T04:18:23;96121.97;;;4.99;72.42
6218;BME280;3142;48.206;11.550;2023-02-02T04:20:55;96118.22;;;4.94;73.42
6218;BME280;3142;48.206;11.550;2023-02-02T04:23:21;96126.00;;;4.94;72.88
6218;BME280;3142;48.206;11.550;2023-02-02T04:25:48;96121.16;;;4.99;73.02
6218;BME280;3142;48.206;11.550;2023-02-02T04:28:16;96129.91;;;4.98;72.81
6218;BME280;3142;48.206;11.550;2023-02-02T04:30:43;96125.22;;;5.01;72.98
6218;BME280;3142;48.206;11.550;2023-02-02T04:33:09;96136.38;;;5.02;73.41
6218;BME280;3142;48.206;11.550;2023-02-02T04:35:35;96137.03;;;5.04;73.63
6218;BME280;3142;48.206;11.550;2023-02-02T04:38:02;96111.38;;;4.93;74.82
6218;BME280;3142;48.206;11.550;2023-02-02T04:40:28;96115.91;;;4.91;74.90
6218;BME280;3142;48.206;11.550;2023-02-02T04:42:56;96125.78;;;4.87;75.05
6218;BME280;3142;48.206;11.550;2023-02-02T04:45:23;96131.31;;;4.92;74.78
6218;BME280;3142;48.206;11.550;2023-02-02T04:47:50;96121.91;;;4.91;74.42
6218;BME280;3142;48.206;11.550;2023-02-02T04:50:16;96125.16;;;4.93;73.61
6218;BME280;3142;48.206;11.550;2023-02-02T04:52:43;96113.31;;;4.91;73.76
6218;BME280;3142;48.206;11.550;2023-02-02T04:55:09;96134.75;;;5.01;72.87
6218;BME280;3142;48.206;11.550;2023-02-02T04:57:36;96122.78;;;5.00;72.78
6218;BME280;3142;48.206;11.550;2023-02-02T05:00:03;96130.06;;;5.04;72.59
6218;BME280;3142;48.206;11.550;2023-02-02T05:02:34;96135.63;;;5.10;72.00
6218;BME280;3142;48.206;11.550;2023-02-02T05:05:00;96140.28;;;5.06;72.79
6218;BME280;3142;48.206;11.550;2023-02-02T05:07:27;96134.28;;;5.05;72.65
6218;BME280;3142;48.206;11.550;2023-02-02T05:09:53;96154.44;;;5.12;72.59
6218;BME280;3142;48.206;11.550;2023-02-02T05:12:20;96153.78;;;5.10;72.85
6218;BME280;3142;48.206;11.550;2023-02-02T05:14:46;96158.66;;;5.13;73.14
6218;BME280;3142;48.206;11.550;2023-02-02T05:17:12;96140.00;;;5.09;73.00
6218;BME280;3142;48.206;11.550;2023-02-02T05:19:40;96157.34;;;5.09;73.32
6218;BME280;3142;48.206;11.550;2023-02-02T05:22:07;96173.88;;;5.08;73.12
6218;BME280;3142;48.206;11.550;2023-02-02T05:24:34;96168.81;;;5.06;72.90
6218;BME280;3142;48.206;11.550;2023-02-02T05:27:00;96173.19;;;5.05;73.81
6218;BME280;3142;48.206;11.550;2023-02-02T05:29:27;96170.97;;;5.11;74.07
6218;BME280;3142;48.206;11.550;2023-02-02T05:31:53;96164.44;;;5.06;74.13
6218;BME280;3142;48.206;11.550;2023-02-02T05:34:20;96179.66;;;5.01;74.51
6218;BME280;3142;48.206;11.550;2023-02-02T05:36:48;96158.91;;;5.01;74.42
6218;BME280;3142;48.206;11.550;2023-02-02T05:39:15;96161.00;;;4.98;74.66
6218;BME280;3142;48.206;11.550;2023-02-02T05:41:41;96159.88;;;5.00;74.71
6218;BME280;3142;48.206;11.550;2023-02-02T05:44:08;96164.44;;;5.06;73.98
6218;BME280;3142;48.206;11.550;2023-02-02T05:46:34;96147.56;;;5.02;74.62
6218;BME280;3142;48.206;11.550;2023-02-02T05:49:01;96169.50;;;5.08;74.12
6218;BME280;3142;48.206;11.550;2023-02-02T05:51:30;96154.38;;;5.03;73.99
6218;BME280;3142;48.206;11.550;2023-02-02T05:54:00;96144.97;;;5.02;74.55
6218;BME280;3142;48.206;11.550;2023-02-02T05:56:26;96156.97;;;5.03;74.77
6218;BME280;3142;48.206;11.550;2023-02-02T05:58:53;96155.03;;;5.05;74.68
6218;BME280;3142;48.206;11.550;2023-02-02T06:01:19;96155.19;;;5.04;73.93
6218;BME280;3142;48.206;11.550;2023-02-02T06:03:46;96160.22;;;5.05;73.91
6218;BME280;3142;48.206;11.550;2023-02-02T06:06:13;96150.22;;;5.11;73.24
6218;BME280;3142;48.206;11.550;2023-02-02T06:08:39;96168.25;;;5.20;72.37
6218;BME280;3142;48.206;11.550;2023-02-02T06:11:11;96173.25;;;5.14;73.13
6218;BME280;3142;48.206;11.550;2023-02-02T06:13:38;96138.56;;;5.15;73.34
6218;BME280;3142;48.206;11.550;2023-02-02T06:16:05;96175.84;;;5.14;73.00
6218;BME280;3142;48.206;11.550;2023-02-02T06:18:32;96175.34;;;5.10;73.63
6218;BME280;3142;48.206;11.550;2023-02-02T06:20:59;96170.97;;;5.19;72.73
6218;BME280;3142;48.206;11.550;2023-02-02T06:23:26;96173.41;;;5.20;72.28
6218;BME280;3142;48.206;11.550;2023-02-02T06:25:53;96144.25;;;5.18;72.88
6218;BME280;3142;48.206;11.550;2023-02-02T06:28:21;96152.66;;;5.12;72.43
6218;BME280;3142;48.206;11.550;2023-02-02T06:30:47;96153.31;;;5.14;72.92
6218;BME280;3142;48.206;11.550;2023-02-02T06:33:14;96150.56;;;5.16;72.65
6218;BME280;3142;48.206;11.550;2023-02-02T06:35:40;96147.00;;;5.17;72.69
6218;BME280;3142;48.206;11.550;2023-02-02T06:38:06;96156.22;;;5.11;72.98
6218;BME280;3142;48.206;11.550;2023-02-02T06:40:33;96154.59;;;5.10;73.05
6218;BME280;3142;48.206;11.550;2023-02-02T06:43:01;96154.44;;;5.12;73.09
6218;BME280;3142;48.206;11.550;2023-02-02T06:45:29;96158.50;;;5.14;72.88
6218;BME280;3142;48.206;11.550;2023-02-02T06:47:58;96176.97;;;5.11;72.96
6218;BME280;3142;48.206;11.550;2023-02-02T06:50:27;96173.75;;;5.17;72.54
6218;BME280;3142;48.206;11.550;2023-02-02T06:52:54;96195.63;;;5.15;73.25
6218;BME280;3142;48.206;11.550;2023-02-02T06:55:20;96199.81;;;5.16;72.52
6218;BME280;3142;48.206;11.550;2023-02-02T06:57:46;96178.28;;;5.15;72.50
6218;BME280;3142;48.206;11.550;2023-02-02T07:00:14;96178.94;;;5.17;72.67
6218;BME280;3142;48.206;11.550;2023-02-02T07:02:44;96168.41;;;5.19;72.64
6218;BME280;3142;48.206;11.550;2023-02-02T07:05:11;96217.00;;;5.17;72.96
6218;BME280;3142;48.206;11.550;2023-02-02T07:07:37;96197.41;;;5.14;72.83
6218;BME280;3142;48.206;11.550;2023-02-02T07:10:04;96187.34;;;5.19;72.93
6218;BME280;3142;48.206;11.550;2023-02-02T07:12:31;96208.56;;;5.15;73.19
6218;BME280;3142;48.206;11.550;2023-02-02T07:14:57;96194.97;;;5.13;73.33
6218;BME280;3142;48.206;11.550;2023-02-02T07:17:24;96200.16;;;5.13;73.56
6218;BME280;3142;48.206;11.550;2023-02-02T07:19:51;96204.69;;;5.19;73.34
6218;BME280;3142;48.206;11.550;2023-02-02T07:22:18;96209.69;;;5.12;73.50
6218;BME280;3142;48.206;11.550;2023-02-02T07:24:44;96221.84;;;5.12;73.57
6218;BME280;3142;48.206;11.550;2023-02-02T07:27:11;96203.22;;;5.16;73.88
6218;BME280;3142;48.206;11.550;2023-02-02T07:29:37;96225.09;;;5.14;73.81
6218;BME280;3142;48.206;11.550;2023-02-02T07:32:04;96225.75;;;5.16;74.04
6218;BME280;3142;48.206;11.550;2023-02-02T07:34:30;96233.69;;;5.14;74.11
6218;BME280;3142;48.206;11.550;2023-02-02T07:36:58;96229.38;;;5.23;73.80
6218;BME280;3142;48.206;11.550;2023-02-02T07:39:24;96229.00;;;5.18;74.11
6218;BME280;3142;48.206;11.550;2023-02-02T07:41:51;96243.91;;;5.16;74.21
6218;BME280;3142;48.206;11.550;2023-02-02T07:44:17;96244.41;;;5.19;74.33
6218;BME280;3142;48.206;11.550;2023-02-02T07:46:44;96257.91;;;5.23;74.23
6218;BME280;3142;48.206;11.550;2023-02-02T07:49:11;96245.38;;;5.18;75.04
6218;BME280;3142;48.206;11.550;2023-02-02T07:51:39;96246.19;;;5.19;74.84
6218;BME280;3142;48.206;11.550;2023-02-02T07:54:07;96249.25;;;5.14;75.78
6218;BME280;3142;48.206;11.550;2023-02-02T07:56:34;96263.25;;;5.21;75.38
6218;BME280;3142;48.206;11.550;2023-02-02T07:59:00;96249.75;;;5.18;75.17
6218;BME280;3142;48.206;11.550;2023-02-02T08:01:27;96269.69;;;5.17;75.21
6218;BME280;3142;48.206;11.550;2023-02-02T08:03:55;96256.88;;;5.16;75.86
6218;BME280;3142;48.206;11.550;2023-02-02T08:06:25;96261.09;;;5.17;75.73
6218;BME280;3142;48.206;11.550;2023-02-02T08:08:52;96258.66;;;5.15;75.62
6218;BME280;3142;48.206;11.550;2023-02-02T08:11:21;96259.16;;;5.19;75.10
6218;BME280;3142;48.206;11.550;2023-02-02T08:13:50;96255.91;;;5.17;75.52
6218;BME280;3142;48.206;11.550;2023-02-02T08:16:17;96261.59;;;5.20;74.99
6218;BME280;3142;48.206;11.550;2023-02-02T08:18:44;96277.03;;;5.22;75.31
6218;BME280;3142;48.206;11.550;2023-02-02T08:21:10;96261.59;;;5.20;75.16
6218;BME280;3142;48.206;11.550;2023-02-02T08:23:39;96273.75;;;5.20;75.21
6218;BME280;3142;48.206;11.550;2023-02-02T08:26:08;96276.41;;;5.28;75.13
6218;BME280;3142;48.206;11.550;2023-02-02T08:28:36;96288.06;;;5.24;74.78
6218;BME280;3142;48.206;11.550;2023-02-02T08:31:04;96294.56;;;5.28;75.05
6218;BME280;3142;48.206;11.550;2023-02-02T08:33:31;96305.91;;;5.27;75.01
6218;BME280;3142;48.206;11.550;2023-02-02T08:35:57;96285.47;;;5.24;75.07
6218;BME280;3142;48.206;11.550;2023-02-02T08:38:24;96307.38;;;5.29;75.22
6218;BME280;3142;48.206;11.550;2023-02-02T08:40:50;96311.25;;;5.25;75.56
6218;BME280;3142;48.206;11.550;2023-02-02T08:43:16;96319.63;;;5.19;76.08
6218;BME280;3142;48.206;11.550;2023-02-02T08:45:44;96296.50;;;5.26;76.20
6218;BME280;3142;48.206;11.550;2023-02-02T08:48:12;96337.34;;;5.24;76.38
6218;BME280;3142;48.206;11.550;2023-02-02T08:50:41;96300.06;;;5.25;76.95
6218;BME280;3142;48.206;11.550;2023-02-02T08:53:07;96309.13;;;5.21;77.43
6218;BME280;3142;48.206;11.550;2023-02-02T08:55:34;96297.56;;;5.15;78.08
6218;BME280;3142;48.206;11.550;2023-02-02T08:58:00;96295.28;;;5.12;78.13
6218;BME280;3142;48.206;11.550;2023-02-02T09:00:27;96309.38;;;5.10;78.29
6218;BME280;3142;48.206;11.550;2023-02-02T09:02:54;96297.22;;;5.10;77.98
6218;BME280;3142;48.206;11.550;2023-02-02T09:05:21;96306.63;;;5.11;78.27
6218;BME280;3142;48.206;11.550;2023-02-02T09:07:47;96295.88;;;5.06;78.49
6218;BME280;3142;48.206;11.550;2023-02-02T09:10:14;96307.28;;;5.13;78.37
6218;BME280;3142;48.206;11.550;2023-02-02T09:12:41;96317.16;;;5.10;78.10
6218;BME280;3142;48.206;11.550;2023-02-02T09:15:08;96319.28;;;5.14;78.05
6218;BME280;3142;48.206;11.550;2023-02-02T09:17:34;96323.34;;;5.17;77.92
6218;BME280;3142;48.206;11.550;2023-02-02T09:20:03;96301.34;;;5.21;77.62
6218;BME280;3142;48.206;11.550;2023-02-02T09:22:29;96300.66;;;5.19;77.44
6218;BME280;3142;48.206;11.550;2023-02-02T09:24:56;96322.91;;;5.21;77.30
6218;BME280;3142;48.206;11.550;2023-02-02T09:27:22;96328.09;;;5.21;77.17
6218;BME280;3142;48.206;11.550;2023-02-02T09:29:49;96321.88;;;5.14;77.73
6218;BME280;3142;48.206;11.550;2023-02-02T09:32:17;96312.97;;;5.17;78.03
6218;BME280;3142;48.206;11.550;2023-02-02T09:34:43;96315.47;;;5.26;77.51
6218;BME280;3142;48.206;11.550;2023-02-02T09:37:11;96314.34;;;5.29;77.22
6218;BME280;3142;48.206;11.550;2023-02-02T09:39:37;96340.25;;;5.21;77.69
6218;BME280;3142;48.206;11.550;2023-02-02T09:42:19;96327.28;;;5.21;77.89
6218;BME280;3142;48.206;11.550;2023-02-02T09:45:13;96334.28;;;5.28;77.83
6218;BME280;3142;48.206;11.550;2023-02-02T09:47:51;96307.91;;;5.33;77.44
6218;BME280;3142;48.206;11.550;2023-02-02T09:50:26;96326.06;;;5.33;77.89
6218;BME280;3142;48.206;11.550;2023-02-02T09:52:59;96331.13;;;5.34;77.69
6218;BME280;3142;48.206;11.550;2023-02-02T09:55:30;96338.06;;;5.34;77.90
6218;BME280;3142;48.206;11.550;2023-02-02T09:58:04;96332.38;;;5.30;78.36
6218;BME280;3142;48.206;11.550;2023-02-02T10:00:36;96321.03;;;5.31;78.43
6218;BME280;3142;48.206;11.550;2023-02-02T10:03:08;96336.50;;;5.41;78.33
6218;BME280;3142;48.206;11.550;2023-02-02T10:05:44;96336.34;;;5.43;78.21
6218;BME280;3142;48.206;11.550;2023-02-02T10:08:17;96321.28;;;5.46;77.49
6218;BME280;3142;48.206;11.550;2023-02-02T10:10:47;96325.50;;;5.47;77.36
6218;BME280;3142;48.206;11.550;2023-02-02T10:13:18;96313.22;;;5.49;77.39
6218;BME280;3142;48.206;11.550;2023-02-02T10:15:52;96321.34;;;5.54;76.68
6218;BME280;3142;48.206;11.550;2023-02-02T10:18:29;96299.66;;;5.63;76.61
6218;BME280;3142;48.206;11.550;2023-02-02T10:21:01;96317.16;;;5.61;76.73
6218;BME280;3142;48.206;11.550;2023-02-02T10:23:33;96311.97;;;5.61;76.56
6218;BME280;3142;48.206;11.550;2023-02-02T10:26:04;96315.25;;;5.63;76.17
6218;BME280;3142;48.206;11.550;2023-02-02T10:28:41;96315.25;;;5.63;75.90
6218;BME280;3142;48.206;11.550;2023-02-02T10:31:16;96322.06;;;5.64;76.62
6218;BME280;3142;48.206;11.550;2023-02-02T10:33:51;96316.22;;;5.62;75.97
6218;BME280;3142;48.206;11.550;2023-02-02T10:36:25;96320.63;;;5.70;75.85
6218;BME280;3142;48.206;11.550;2023-02-02T10:39:01;96310.72;;;5.65;75.67
6218;BME280;3142;48.206;11.550;2023-02-02T10:41:32;96324.94;;;5.61;76.27
6218;BME280;3142;48.206;11.550;2023-02-02T10:44:10;96310.41;;;5.69;76.05
6218;BME280;3142;48.206;11.550;2023-02-02T10:46:44;96303.06;;;5.64;75.80
6218;BME280;3142;48.206;11.550;2023-02-02T10:49:21;96308.94;;;5.66;76.15
6218;BME280;3142;48.206;11.550;2023-02-02T10:51:54;96312.34;;;5.67;75.89
6218;BME280;3142;48.206;11.550;2023-02-02T10:54:36;96300.66;;;5.71;75.07
6218;BME280;3142;48.206;11.550;2023-02-02T10:57:06;96301.47;;;5.71;75.57
6218;BME280;3142;48.206;11.550;2023-02-02T10:59:40;96312.19;;;5.68;75.58
6218;BME280;3142;48.206;11.550;2023-02-02T11:02:10;96319.50;;;5.73;76.90
6218;BME280;3142;48.206;11.550;2023-02-02T11:04:37;96305.75;;;5.80;76.05
6218;BME280;3142;48.206;11.550;2023-02-02T11:07:21;96305.28;;;5.85;75.80
6218;BME280;3142;48.206;11.550;2023-02-02T11:09:48;96291.16;;;5.87;75.05
6218;BME280;3142;48.206;11.550;2023-02-02T11:12:19;96297.81;;;5.82;76.08
6218;BME280;3142;48.206;11.550;2023-02-02T11:14:50;96306.09;;;5.85;76.49
6218;BME280;3142;48.206;11.550;2023-02-02T11:17:19;96336.28;;;5.86;76.52
6218;BME280;3142;48.206;11.550;2023-02-02T11:19:47;96330.94;;;5.88;76.46
6218;BME280;3142;48.206;11.550;2023-02-02T11:22:27;96310.16;;;5.88;77.28
6218;BME280;3142;48.206;11.550;2023-02-02T11:24:57;96318.75;;;5.88;77.12
6218;BME280;3142;48.206;11.550;2023-02-02T11:27:26;96318.91;;;5.87;76.98
6218;BME280;3142;48.206;11.550;2023-02-02T11:29:54;96321.16;;;5.82;76.91
6218;BME280;3142;48.206;11.550;2023-02-02T11:32:27;96316.63;;;5.84;77.02
6218;BME280;3142;48.206;11.550;2023-02-02T11:35:19;96318.72;;;5.80;77.57
6218;BME280;3142;48.206;11.550;2023-02-02T11:37:53;96313.66;;;5.71;78.12
6218;BME280;3142;48.206;11.550;2023-02-02T11:40:28;96343.31;;;5.68;78.83
6218;BME280;3142;48.206;11.550;2023-02-02T11:42:56;96329.88;;;5.73;78.82
6218;BME280;3142;48.206;11.550;2023-02-02T11:45:28;96315.94;;;5.74;77.92
6218;BME280;3142;48.206;11.550;2023-02-02T11:48:00;96320.63;;;5.70;78.63
6218;BME280;3142;48.206;11.550;2023-02-02T11:50:27;96310.88;;;5.72;78.25
6218;BME280;3142;48.206;11.550;2023-02-02T11:52:54;96327.75;;;5.68;78.60
6218;BME280;3142;48.206;11.550;2023-02-02T11:55:26;96316.25;;;5.71;78.83
6218;BME280;3142;48.206;11.550;2023-02-02T11:58:16;96306.66;;;5.71;78.85
6218;BME280;3142;48.206;11.550;2023-02-02T12:00:46;96314.16;;;5.74;78.57
6218;BME280;3142;48.206;11.550;2023-02-02T12:03:21;96320.47;;;5.72;78.50
6218;BME280;3142;48.206;11.550;2023-02-02T12:05:49;96330.66;;;5.65;78.97
6218;BME280;3142;48.206;11.550;2023-02-02T12:08:15;96338.59;;;5.63;79.97
6218;BME280;3142;48.206;11.550;2023-02-02T12:10:48;96325.91;;;5.60;79.82
6218;BME280;3142;48.206;11.550;2023-02-02T12:13:24;96312.28;;;5.58;79.47
6218;BME280;3142;48.206;11.550;2023-02-02T12:16:03;96318.44;;;5.57;79.70
6218;BME280;3142;48.206;11.550;2023-02-02T12:18:39;96319.88;;;5.52;80.56
6218;BME280;3142;48.206;11.550;2023-02-02T12:21:14;96331.06;;;5.52;80.65
6218;BME280;3142;48.206;11.550;2023-02-02T12:24:01;96318.75;;;5.54;80.99
6218;BME280;3142;48.206;11.550;2023-02-02T12:26:36;96337.22;;;5.51;81.17
6218;BME280;3142;48.206;11.550;2023-02-02T12:29:33;96323.88;;;5.46;81.86
6218;BME280;3142;48.206;11.550;2023-02-02T12:32:17;96327.00;;;5.50;82.00
6218;BME280;3142;48.206;11.550;2023-02-02T12:34:56;96310.91;;;5.46;81.37
6218;BME280;3142;48.206;11.550;2023-02-02T12:37:34;96321.91;;;5.40;82.12
6218;BME280;3142;48.206;11.550;2023-02-02T12:40:25;96315.44;;;5.44;82.02
6218;BME280;3142;48.206;11.550;2023-02-02T12:43:03;96308.78;;;5.42;82.15
6218;BME280;3142;48.206;11.550;2023-02-02T12:45:46;96307.31;;;5.39;81.96
6218;BME280;3142;48.206;11.550;2023-02-02T12:48:27;96330.34;;;5.42;82.16
6218;BME280;3142;48.206;11.550;2023-02-02T12:51:06;96338.59;;;5.38;82.21
6218;BME280;3142;48.206;11.550;2023-02-02T12:53:52;96317.69;;;5.39;82.81
6218;BME280;3142;48.206;11.550;2023-02-02T12:56:25;96318.19;;;5.43;82.67
6218;BME280;3142;48.206;11.550;2023-02-02T12:59:03;96319.16;;;5.42;82.30
6218;BME280;3142;48.206;11.550;2023-02-02T13:01:45;96332.44;;;5.39;82.62
6218;BME280;3142;48.206;11.550;2023-02-02T13:04:32;96329.03;;;5.38;82.61
6218;BME280;3142;48.206;11.550;2023-02-02T13:07:15;96336.44;;;5.33;83.04
6218;BME280;3142;48.206;11.550;2023-02-02T13:09:49;96339.34;;;5.30;82.92
6218;BME280;3142;48.206;11.550;2023-02-02T13:12:18;96319.09;;;5.33;83.36
6218;BME280;3142;48.206;11.550;2023-02-02T13:14:52;96328.00;;;5.31;82.60
6218;BME280;3142;48.206;11.550;2023-02-02T13:17:24;96339.34;;;5.30;82.99
6218;BME280;3142;48.206;11.550;2023-02-02T13:19:54;96345.13;;;5.24;83.92
6218;BME280;3142;48.206;11.550;2023-02-02T13:22:27;96355.13;;;5.19;83.51
6218;BME280;3142;48.206;11.550;2023-02-02T13:24:57;96355.94;;;5.19;84.26
6218;BME280;3142;48.206;11.550;2023-02-02T13:27:25;96362.41;;;5.15;84.75
6218;BME280;3142;48.206;11.550;2023-02-02T13:29:57;96368.72;;;5.13;84.68
6218;BME280;3142;48.206;11.550;2023-02-02T13:32:28;96367.13;;;5.20;84.82
6218;BME280;3142;48.206;11.550;2023-02-02T13:34:59;96371.97;;;5.15;85.04
6218;BME280;3142;48.206;11.550;2023-02-02T13:37:31;96358.84;;;5.16;84.94
6218;BME280;3142;48.206;11.550;2023-02-02T13:40:04;96377.16;;;5.15;85.23
6218;BME280;3142;48.206;11.550;2023-02-02T13:42:37;96384.25;;;5.13;85.54
6218;BME280;3142;48.206;11.550;2023-02-02T13:45:34;96378.41;;;5.11;85.71